Latest Coastal Weather Observations for St Helens

IDT60701

Issued at 6:42 pm EST Saturday 24 June 2017 (issued every 10 minutes, with the page automatically refreshed every 10 minutes)

About coastal observations | Map of coastal stations | Coastal observations for TAS | Marine services | Other Formats
Station Details ID: 092120 Name: ST HELENS AERODROME Lat: -41.34 Lon: 148.28 Height: 48.0 m
Data from the previous 72 hours. | See also: Recent months at St Helens
Date/Time
EST
Temp
°C
Wind Pressure Rain since
9am
mm
Weather Cloud Vis
km
Sea
Height
m
Swell
Dir  Spd
kts
Gust
kts
hPa Trend Height
m
Period
s
Dir
24/06:30pm 6.3 CALM 0 0 1011.7 - 0.0 - - 10 - - - -
24/06:00pm 6.9 N 3 4 1011.6 - 0.0 - - 10 - - - -
24/05:30pm 7.2 N 2 4 1011.4 - 0.0 - - 10 - - - -
24/05:00pm 7.6 N 3 4 1011.3 - 0.0 - - 10 - - - -
24/04:30pm 8.5 WNW 1 4 1011.2 - 0.0 - - 10 - - - -
24/04:00pm 8.6 N 4 5 1011.1 - 0.0 - - 10 - - - -
24/03:30pm 8.8 N 3 5 1011.1 - 0.0 - - 10 - - - -
24/03:00pm 9.4 NNW 5 6 1010.9 - 0.0 - - 10 - - - -
24/02:30pm 10.0 WNW 6 10 1010.8 - 0.0 - - 10 - - - -
24/02:00pm 9.7 W 5 9 1010.9 - 0.0 - - 10 - - - -
24/01:30pm 9.8 WNW 5 9 1011.1 - 0.0 - - 10 - - - -
24/01:00pm 9.8 W 5 9 1011.4 - 0.0 - - 10 - - - -
24/12:30pm 9.4 NW 6 10 1011.6 - 0.0 - Partly cloudy 10 - - - -
24/12:00pm 9.9 W 5 9 1011.8 - 0.0 - - 10 - - - -
24/11:30am 9.9 WNW 7 12 1012.3 - 0.0 - - 10 - - - -
24/11:00am 9.3 WNW 6 9 1012.7 - 0.0 - - 10 - - - -
24/10:30am 8.1 W 4 7 1012.9 - 0.0 - - 10 - - - -
24/10:00am 6.9 WNW 4 7 1013.0 - 0.0 - - 10 - - - -
24/09:30am 5.7 W 4 6 1013.0 - 0.0 - - 10 - - - -
24/09:00am 4.2 WNW 4 6 1012.8 - 0.2 Haze Mostly clear 20 - - - -
24/08:30am 3.3 N 5 7 1012.5 - 0.2 - - 10 - - - -
24/08:00am 3.1 NW 6 8 1012.1 - 0.2 - - 10 - - - -
24/07:30am 3.1 NNW 5 6 1011.9 - 0.2 - - 10 - - - -
24/07:00am 3.5 W 6 9 1011.6 - 0.2 - - 10 - - - -
24/06:30am 3.8 WSW 7 9 1010.9 - 0.2 - - 10 - - - -
24/06:00am 3.5 WSW 6 11 1010.8 - 0.2 - - 10 - - - -
24/05:30am 4.7 SW 8 12 1010.8 - 0.2 - - 10 - - - -
24/05:00am 4.5 SW 9 14 1010.3 - 0.2 - - 10 - - - -
24/04:30am 3.7 WSW 6 9 1010.0 - 0.2 - - 10 - - - -
24/04:00am 4.2 W 5 7 1009.7 - 0.2 - - 10 - - - -
24/03:30am 5.8 SSW 8 17 1009.7 - 0.2 - - 10 - - - -
24/03:00am 5.5 SW 8 15 1009.4 - 0.2 - - 10 - - - -
24/02:30am 5.8 SSW 10 16 1009.3 - 0.2 - - 10 - - - -
24/02:00am 6.1 SW 10 17 1008.3 - 0.2 - - 10 - - - -
24/01:30am 5.8 SW 8 11 1008.0 - 0.2 - - 10 - - - -
24/01:00am 6.3 SW 8 11 1007.8 - 0.2 - - 10 - - - -
24/12:30am 6.8 WSW 8 13 1006.9 - 0.2 - - 10 - - - -
24/12:00am 7.0 SW 8 14 1006.9 - 0.2 - - 10 - - - -
 
Date/Time
EST
Temp
°C
Wind Pressure Rain since
9am
mm
Weather Cloud Vis
km
Sea
Height
m
Swell
Dir  Spd
kts
Gust
kts
hPa Trend Height
m
Period
s
Dir
23/11:30pm 7.0 SW 9 15 1006.6 - 0.2 - - 10 - - - -
23/11:00pm 6.9 SSW 6 11 1006.2 - 0.2 - Partly cloudy 10 - - - -
23/10:30pm 7.9 SSW 7 11 1005.7 - 0.2 - Partly cloudy 10 - - - -
23/10:00pm 8.2 SSW 5 8 1005.0 - 0.2 - Partly cloudy 10 - - - -
23/09:30pm 9.0 SSW 6 9 1004.4 - 0.2 - Partly cloudy 10 - - - -
23/09:00pm 9.8 NW 3 6 1004.0 - 0.2 - Mostly clear 10 - - - -
23/08:30pm 10.1 NNW 6 7 1003.4 - 0.2 - - 10 - - - -
23/08:00pm 10.4 NW 7 9 1002.8 - 0.2 - - 10 - - - -
23/07:30pm 11.0 NW 8 11 1002.5 - 0.2 - - 10 - - - -
23/07:00pm 11.4 NW 8 11 1002.0 - 0.2 - - 10 - - - -
23/06:30pm 11.8 NNW 7 11 1001.5 - 0.2 - Partly cloudy 10 - - - -
23/06:00pm 12.1 WNW 10 19 1002.2 - 0.2 - Cloudy 10 - - - -
23/05:30pm 12.0 WNW 9 14 1002.0 - 0.2 - Partly cloudy 10 - - - -
23/05:00pm 11.5 W 7 15 1002.3 - 0.2 - Cloudy 10 - - - -
23/04:30pm 11.1 NNW 8 11 1002.7 - 0.2 - Cloudy 10 - - - -
23/04:00pm 12.4 NNW 11 21 1003.3 - 0.0 - Partly cloudy 10 - - - -
23/03:30pm 12.4 NW 12 23 1003.5 - 0.0 - Partly cloudy 10 - - - -
23/03:00pm 12.5 WNW 15 27 1003.6 - 0.0 - Mostly clear 10 - - - -
23/02:32pm 12.6 W 15 27 1003.8 - 0.0 - Partly cloudy 10 - - - -
23/02:30pm 12.8 W 14 28 1003.8 - 0.0 - Partly cloudy 10 - - - -
23/02:02pm 13.5 WNW 15 26 1003.8 - 0.0 - Partly cloudy 10 - - - -
23/02:00pm 13.7 WNW 14 26 1003.9 - 0.0 - Partly cloudy 10 - - - -
23/01:30pm 14.1 W 15 31 1004.2 - 0.0 - - 10 - - - -
23/01:13pm 14.4 WNW 15 35 1004.9 - 0.0 - Partly cloudy 10 - - - -
23/01:00pm 14.8 WNW 13 22 1005.3 - 0.0 - Partly cloudy 10 - - - -
23/12:30pm 14.9 WNW 12 21 1006.3 - 0.0 - Partly cloudy 10 - - - -
23/12:03pm 14.4 NW 15 25 1006.8 - 0.0 - Partly cloudy 10 - - - -
23/12:00pm 14.4 NW 14 26 1007.0 - 0.0 - Mostly clear 10 - - - -
23/11:41am 14.2 WNW 15 25 1007.5 - 0.0 - Partly cloudy 10 - - - -
23/11:30am 14.2 W 11 22 1008.0 - 0.0 - Partly cloudy 10 - - - -
23/11:00am 13.1 NW 11 17 1009.2 - 0.0 - Partly cloudy 10 - - - -
23/10:30am 13.8 WNW 13 25 1009.8 - 0.0 - Partly cloudy 10 - - - -
23/10:00am 12.5 W 7 13 1010.5 - 0.0 - Partly cloudy 10 - - - -
23/09:30am 12.7 W 11 20 1010.7 - 0.0 - - 10 - - - -
23/09:00am 12.9 W 13 22 1011.0 - 0.0 Fine Partly cloudy 25 - - - -
23/08:38am 13.4 WNW 15 28 1010.7 - 0.0 - - 10 - - - -
23/08:30am 13.2 WNW 12 21 1010.8 - 0.0 - - 10 - - - -
23/08:00am 13.2 W 14 27 1010.8 - 0.0 - Partly cloudy 10 - - - -
23/07:34am 13.3 WNW 15 28 1010.9 - 0.0 - - 10 - - - -
23/07:30am 13.1 WNW 13 21 1011.0 - 0.0 - Partly cloudy 10 - - - -
23/07:00am 13.0 W 11 23 1010.9 - 0.0 - - 10 - - - -
23/06:30am 12.8 W 11 19 1011.1 - 0.0 - - 10 - - - -
23/06:00am 12.6 WNW 10 19 1011.4 - 0.0 - Mostly cloudy 10 - - - -
23/05:30am 11.2 NNW 6 10 1011.9 - 0.0 - Partly cloudy 10 - - - -
23/05:00am 10.6 ENE 5 8 1012.4 - 0.0 - Cloudy 10 - - - -
23/04:30am 10.2 NNE 6 8 1012.9 - 0.0 - Cloudy 10 - - - -
23/04:00am 10.0 N 7 11 1013.5 - 0.0 - Partly cloudy 10 - - - -
23/03:30am 10.0 N 9 13 1013.9 - 0.0 - Partly cloudy 10 - - - -
23/03:00am 9.9 N 7 14 1014.6 - 0.0 - Cloudy 10 - - - -
23/02:30am 10.4 NW 6 10 1015.0 - 0.0 - Partly cloudy 10 - - - -
23/02:00am 9.6 N 6 9 1015.5 - 0.0 - - 10 - - - -
23/01:30am 9.6 N 7 12 1016.0 - 0.0 - Partly cloudy 10 - - - -
23/01:00am 10.1 N 7 11 1016.3 - 0.0 - Partly cloudy 10 - - - -
23/12:30am 9.7 NNW 7 11 1016.6 - 0.0 - - 10 - - - -
23/12:00am 9.4 NNW 7 8 1017.2 - 0.0 - Mostly clear 10 - - - -
 
Date/Time
EST
Temp
°C
Wind Pressure Rain since
9am
mm
Weather Cloud Vis
km
Sea
Height
m
Swell
Dir  Spd
kts
Gust
kts
hPa Trend Height
m
Period
s
Dir
22/11:30pm 9.7 NNW 7 11 1017.6 - 0.0 - Partly cloudy 10 - - - -
22/11:00pm 8.9 NNW 7 9 1018.0 - 0.0 - - 10 - - - -
22/10:30pm 6.5 NW 4 6 1018.6 - 0.0 - Partly cloudy 10 - - - -
22/10:00pm 7.5 N 5 8 1018.8 - 0.0 - Partly cloudy 10 - - - -
22/09:30pm 7.6 N 5 7 1019.3 - 0.0 - Partly cloudy 10 - - - -
22/09:00pm 7.9 NNW 6 10 1019.4 - 0.0 - - 10 - - - -
22/08:30pm 7.1 NW 5 7 1019.7 - 0.0 - - 10 - - - -
22/08:00pm 7.3 N 5 7 1020.1 - 0.0 - - 10 - - - -
22/07:30pm 6.1 NW 2 4 1020.4 - 0.0 - - 10 - - - -
22/07:00pm 7.4 WNW 2 3 1020.7 - 0.0 - - 10 - - - -
22/06:30pm 8.1 NNE 5 7 1020.7 - 0.0 - Partly cloudy 10 - - - -
22/06:00pm 8.6 NNW 5 8 1020.9 - 0.0 - - 10 - - - -
22/05:30pm 8.7 NNW 5 8 1021.3 - 0.0 - - 10 - - - -
22/05:00pm 8.9 NW 6 9 1021.3 - 0.0 - - 10 - - - -
22/04:30pm 9.4 WNW 8 14 1021.6 - 0.0 - - 10 - - - -
22/04:00pm 10.0 WNW 9 16 1021.4 - 0.0 - - 10 - - - -
22/03:30pm 10.7 NW 11 17 1021.4 - 0.0 - Partly cloudy 10 - - - -
22/03:00pm 11.2 W 10 18 1021.9 - 0.0 - Mostly cloudy 10 - - - -
22/02:30pm 11.2 WNW 12 23 1022.1 - 0.0 - Partly cloudy 10 - - - -
22/02:00pm 11.7 WNW 8 13 1022.4 - 0.0 - Partly cloudy 10 - - - -
22/01:30pm 11.8 WNW 10 17 1023.1 - 0.0 - Cloudy 10 - - - -
22/01:00pm 11.0 W 8 14 1023.7 - 0.0 - Cloudy 10 - - - -
22/12:30pm 12.3 NW 9 15 1024.1 - 0.0 - Cloudy 10 - - - -
22/12:00pm 11.6 NW 8 13 1024.6 - 0.0 - Cloudy 10 - - - -
22/11:30am 11.2 NW 5 9 1025.2 - 0.0 - Partly cloudy 10 - - - -
22/11:00am 10.3 WNW 3 6 1025.6 - 0.0 - Cloudy 10 - - - -
22/10:30am 9.4 WNW 1 4 1026.1 - 0.0 - Cloudy 10 - - - -
22/10:00am 8.6 SSE 1 4 1026.6 - 0.0 - Cloudy 10 - - - -
22/09:30am 7.7 NNW 4 6 1026.7 - 0.0 - Cloudy 10 - - - -
22/09:00am 7.3 NNW 4 6 1026.9 - 0.0 Fine Mostly cloudy 25 - - - -
22/08:30am 6.8 WNW 4 6 1027.0 - 0.0 - Cloudy 10 - - - -
22/08:00am 6.6 NW 7 8 1027.3 - 0.0 - Cloudy 10 - - - -
22/07:30am 6.6 NW 5 7 1027.2 - 0.0 - Cloudy 10 - - - -
22/07:00am 6.7 NW 6 8 1027.4 - 0.0 - Partly cloudy 10 - - - -
22/06:30am 6.5 NW 6 8 1027.5 - 0.0 - Cloudy 10 - - - -
22/06:00am 6.4 WNW 5 6 1027.4 - 0.0 - Cloudy 10 - - - -
22/05:30am 6.3 NW 6 8 1027.5 - 0.0 - Cloudy 10 - - - -
22/05:00am 6.2 NW 6 9 1027.5 - 0.0 - Cloudy 10 - - - -
22/04:30am 6.1 NW 6 9 1027.4 - 0.0 - Cloudy 10 - - - -
22/04:00am 6.0 NW 7 8 1027.5 - 0.0 - Cloudy 10 - - - -
22/03:30am 6.0 NW 6 8 1027.7 - 0.0 - Cloudy 10 - - - -
22/03:00am 5.8 NW 5 7 1028.1 - 0.0 - Cloudy 10 - - - -
22/02:30am 5.7 NW 6 8 1028.2 - 0.0 - Cloudy 10 - - - -
22/02:00am 6.1 SW 3 6 1028.4 - 0.0 - Partly cloudy 10 - - - -
22/01:30am 6.0 WSW 3 5 1028.7 - 0.0 - Cloudy 10 - - - -
22/01:00am 6.3 NW 6 8 1028.9 - 0.0 - Partly cloudy 10 - - - -
22/12:30am 6.1 NW 5 7 1029.0 - 0.0 - Partly cloudy 10 - - - -
22/12:00am 6.6 NW 7 8 1029.2 - 0.0 - Mostly cloudy 10 - - - -
 
Date/Time
EST
Temp
°C
Wind Pressure Rain since
9am
mm
Weather Cloud Vis
km
Sea
Height
m
Swell
Dir  Spd
kts
Gust
kts
hPa Trend Height
m
Period
s
Dir
21/11:30pm 6.7 NW 6 8 1029.3 - 0.0 - Cloudy 10 - - - -
21/11:00pm 6.8 NW 6 8 1029.3 - 0.0 - Cloudy 10 - - - -
21/10:30pm 7.2 NNW 5 7 1029.3 - 0.0 - Cloudy 10 - - - -
21/10:00pm 7.3 NW 4 5 1029.3 - 0.0 - Cloudy 10 - - - -
21/09:30pm 7.6 WSW 1 4 1029.2 - 0.0 - Cloudy 10 - - - -
21/09:00pm 8.2 CALM 0 0 1029.3 - 0.0 - Cloudy 10 - - - -
21/08:30pm 8.2 CALM 0 0 1029.3 - 0.0 - Cloudy 10 - - - -
21/08:00pm 8.5 CALM 0 0 1029.3 - 0.0 - Cloudy 10 - - - -
21/07:30pm 8.3 SSW 1 3 1029.1 - 0.0 - Partly cloudy 10 - - - -
21/07:00pm 8.2 S 4 7 1028.7 - 0.0 - Cloudy 10 - - - -

Other Formats:

Comma delimited format used in spreadsheet applications
http://www.bom.gov.au/fwo/IDT60701/IDT60701.95981.axf

JavaScript Object Notation format (JSON) in row-major order
http://www.bom.gov.au/fwo/IDT60701/IDT60701.95981.json